McGrew, Nebraska
Current Conditions -  °F | °C
As of 2:53 AM on Sunday 26 Oct 2014 (Local Time) from KBFF Reporting Station
Clear Clear  
Wind Chill:   Ceiling: Unl
Heat Index:   Visibility: 10mi
Dew Point:   Wind: 0mph
Humidity: 86%   Direction: NA
Pressure: 29.87"   Gusts: NA
Location:  41.75°N, 103.42°W
Report Text: KBFF 260853Z AUTO 00000KT 10SM CLR 06/04 A2987 RMK AO2 SLP084 T00610039 56008
Loading
Personal Weather Stations






























Interactive Weather Map
Tropical Storm Tracking
New forecast layout! Learn more

10-Day Weather Forecast

Advertisements
Track Severe Weather on mobile